Time;durP1;ratioP1;P1;durP2;ratioP2;P2;SDS_P1;SDS_P2;PMS_P1;PMS_P2;Temp;Humidity;BMP_temperature;BMP_pressure;BME280_temperature;BME280_humidity;BME280_pressure;Samples;Min_cycle;Max_cycle;Signal;HPM_P1;HPM_P2
2021/05/26 00:01:19;;;;;;;24.60;5.28;;;;;;;;;;5080710;28;20092;-74
2021/05/26 00:03:45;;;;;;;12.77;3.00;;;;;;;;;;5081656;28;20024;-78
2021/05/26 00:06:11;;;;;;;17.15;2.95;;;;;;;;;;5090152;28;20078;-76
2021/05/26 00:08:38;;;;;;;19.92;3.47;;;;;;;;;;5080922;28;20063;-78
2021/05/26 00:11:06;;;;;;;22.65;3.75;;;;;;;;;;5082930;28;20017;-74
2021/05/26 00:13:32;;;;;;;18.35;2.88;;;;;;;;;;5090630;28;20355;-75
2021/05/26 00:15:58;;;;;;;22.35;2.97;;;;;;;;;;5085575;28;20052;-78
2021/05/26 00:18:24;;;;;;;15.40;2.70;;;;;;;;;;5089832;28;20123;-74
2021/05/26 00:20:52;;;;;;;23.13;5.38;;;;;;;;;;5086904;28;20043;-75
2021/05/26 00:23:19;;;;;;;16.33;2.90;;;;;;;;;;5085875;28;20031;-74
2021/05/26 00:25:45;;;;;;;20.35;3.05;;;;;;;;;;5067648;28;20082;-77
2021/05/26 00:28:11;;;;;;;11.80;2.28;;;;;;;;;;5069229;28;20115;-71
2021/05/26 00:30:45;;;;;;;10.98;3.22;;;;;;;;;;5090705;28;20031;-76
2021/05/26 00:33:11;;;;;;;22.33;3.97;;;;;;;;;;5090212;28;20377;-77
2021/05/26 00:35:37;;;;;;;13.00;2.33;;;;;;;;;;5090590;28;20024;-77
2021/05/26 00:38:03;;;;;;;18.98;3.30;;;;;;;;;;5090529;28;20072;-77
2021/05/26 00:40:29;;;;;;;12.75;2.13;;;;;;;;;;5091593;28;20032;-76
2021/05/26 00:42:55;;;;;;;11.73;2.65;;;;;;;;;;5068918;28;20119;-74
2021/05/26 00:45:22;;;;;;;11.50;2.03;;;;;;;;;;5071449;28;20031;-77
2021/05/26 00:47:50;;;;;;;12.07;2.33;;;;;;;;;;5086512;28;20032;-77
2021/05/26 00:50:18;;;;;;;8.60;1.90;;;;;;;;;;5086769;28;20024;-78
2021/05/26 00:52:44;;;;;;;14.30;2.38;;;;;;;;;;5085173;28;20031;-75
2021/05/26 00:55:12;;;;;;;10.98;2.30;;;;;;;;;;5071365;28;20527;-73
2021/05/26 00:57:38;;;;;;;15.75;2.47;;;;;;;;;;5079484;28;20026;-77
2021/05/26 01:00:05;;;;;;;10.82;2.10;;;;;;;;;;5089389;28;20036;-76
2021/05/26 01:02:31;;;;;;;14.43;3.40;;;;;;;;;;5085970;28;20024;-79
2021/05/26 01:04:57;;;;;;;12.95;2.03;;;;;;;;;;5083401;28;20028;-79
2021/05/26 01:07:23;;;;;;;8.85;2.00;;;;;;;;;;5089953;28;20062;-75
2021/05/26 01:09:49;;;;;;;12.23;2.70;;;;;;;;;;5090221;28;20028;-77
2021/05/26 01:12:16;;;;;;;17.00;3.20;;;;;;;;;;5067411;28;20024;-77
2021/05/26 01:14:42;;;;;;;14.57;2.35;;;;;;;;;;5089967;28;20499;-78
2021/05/26 01:17:08;;;;;;;15.25;3.05;;;;;;;;;;5069192;28;20051;-77
2021/05/26 01:19:34;;;;;;;19.27;3.40;;;;;;;;;;5081162;28;20028;-77
2021/05/26 01:22:00;;;;;;;17.65;2.85;;;;;;;;;;5086787;28;20032;-80
2021/05/26 01:24:26;;;;;;;11.55;3.53;;;;;;;;;;5086767;28;20499;-78
2021/05/26 01:26:52;;;;;;;17.35;3.80;;;;;;;;;;5068891;28;20035;-77
2021/05/26 01:29:18;;;;;;;26.48;4.28;;;;;;;;;;5090338;28;20020;-75
2021/05/26 01:31:44;;;;;;;17.17;3.38;;;;;;;;;;5085365;28;20036;-77
2021/05/26 01:34:11;;;;;;;17.00;3.60;;;;;;;;;;5066589;28;20110;-78
2021/05/26 01:36:37;;;;;;;9.60;3.88;;;;;;;;;;5082547;28;20032;-77
2021/05/26 01:39:06;;;;;;;16.60;3.72;;;;;;;;;;5089264;28;20036;-77
2021/05/26 01:41:32;;;;;;;17.98;3.70;;;;;;;;;;5085107;28;20024;-76
2021/05/26 01:43:58;;;;;;;13.52;3.20;;;;;;;;;;5083951;28;20038;-79
2021/05/26 01:46:25;;;;;;;13.57;3.00;;;;;;;;;;5087175;28;20513;-77
2021/05/26 01:48:51;;;;;;;13.48;4.38;;;;;;;;;;5082832;28;20878;-77
2021/05/26 01:51:18;;;;;;;19.13;3.35;;;;;;;;;;5085259;28;20024;-77
2021/05/26 01:53:44;;;;;;;17.25;4.30;;;;;;;;;;5084531;28;20448;-78
2021/05/26 01:56:15;;;;;;;19.15;4.07;;;;;;;;;;5063143;28;20036;-78
2021/05/26 01:58:41;;;;;;;22.52;5.10;;;;;;;;;;5076138;28;20017;-79
2021/05/26 02:01:07;;;;;;;18.98;4.22;;;;;;;;;;5081814;28;20028;-77
2021/05/26 02:03:33;;;;;;;20.30;4.43;;;;;;;;;;5086608;28;20035;-77
2021/05/26 02:05:59;;;;;;;17.42;4.25;;;;;;;;;;5089868;28;20020;-79
2021/05/26 02:08:25;;;;;;;18.38;4.05;;;;;;;;;;5076792;28;20068;-79
2021/05/26 02:13:36;;;;;;;18.40;4.72;;;;;;;;;;5086692;28;20100;-77
2021/05/26 02:16:02;;;;;;;16.10;4.63;;;;;;;;;;5086022;28;20491;-79
2021/05/26 02:18:28;;;;;;;17.83;5.38;;;;;;;;;;5079010;28;20484;-78
2021/05/26 02:20:54;;;;;;;14.73;4.10;;;;;;;;;;5085005;28;20032;-77
2021/05/26 02:23:20;;;;;;;16.27;6.05;;;;;;;;;;5084281;28;20035;-78
2021/05/26 02:25:46;;;;;;;23.58;4.95;;;;;;;;;;5084772;28;20020;-78
2021/05/26 02:28:12;;;;;;;16.73;4.47;;;;;;;;;;5059770;28;20033;-76
2021/05/26 02:30:38;;;;;;;14.65;5.05;;;;;;;;;;5064415;28;20024;-77
2021/05/26 02:33:04;;;;;;;23.73;5.95;;;;;;;;;;5085480;28;20024;-76
2021/05/26 02:35:31;;;;;;;22.75;5.32;;;;;;;;;;5084528;28;20491;-77
2021/05/26 02:37:57;;;;;;;14.23;5.03;;;;;;;;;;5083629;28;20116;-76
2021/05/26 02:40:23;;;;;;;16.30;5.22;;;;;;;;;;5076510;28;20031;-78
2021/05/26 02:42:49;;;;;;;17.85;5.18;;;;;;;;;;5083856;28;20048;-77
2021/05/26 02:45:15;;;;;;;19.10;6.47;;;;;;;;;;5081956;28;20089;-77
2021/05/26 02:47:41;;;;;;;20.58;5.63;;;;;;;;;;5086943;28;20475;-77
2021/05/26 02:50:07;;;;;;;16.05;6.00;;;;;;;;;;5071196;28;20122;-76
2021/05/26 02:52:33;;;;;;;20.52;5.75;;;;;;;;;;5079801;28;20570;-77
2021/05/26 02:54:59;;;;;;;21.55;7.35;;;;;;;;;;5084641;28;20051;-76
2021/05/26 02:57:25;;;;;;;17.65;7.35;;;;;;;;;;5084386;28;20047;-76
2021/05/26 02:59:52;;;;;;;18.13;6.38;;;;;;;;;;5081674;28;20028;-77
2021/05/26 03:02:18;;;;;;;19.45;7.10;;;;;;;;;;5084595;28;20035;-77
2021/05/26 03:04:44;;;;;;;17.27;6.40;;;;;;;;;;5085011;28;20463;-77
2021/05/26 03:07:10;;;;;;;22.08;7.40;;;;;;;;;;5081224;28;20020;-75
2021/05/26 03:09:36;;;;;;;17.33;7.32;;;;;;;;;;5083285;28;20051;-75
2021/05/26 03:12:02;;;;;;;21.20;7.53;;;;;;;;;;5070907;28;20507;-77
2021/05/26 03:14:28;;;;;;;22.00;7.05;;;;;;;;;;5068254;28;20062;-75
2021/05/26 03:16:54;;;;;;;19.95;6.72;;;;;;;;;;5083475;28;20017;-75
2021/05/26 03:19:20;;;;;;;18.70;6.95;;;;;;;;;;5084192;28;20492;-77
2021/05/26 03:21:46;;;;;;;23.17;7.00;;;;;;;;;;5084158;28;20442;-77
2021/05/26 03:24:13;;;;;;;24.45;7.80;;;;;;;;;;5069561;28;20032;-76
2021/05/26 03:26:40;;;;;;;15.95;6.50;;;;;;;;;;5068461;28;20427;-75
2021/05/26 03:29:07;;;;;;;23.30;7.55;;;;;;;;;;5085960;28;20024;-76
2021/05/26 03:31:33;;;;;;;21.20;7.85;;;;;;;;;;5092332;28;20027;-76
2021/05/26 03:33:59;;;;;;;18.08;7.70;;;;;;;;;;5090689;28;20024;-78
2021/05/26 03:36:25;;;;;;;23.75;7.35;;;;;;;;;;5066586;28;20024;-78
2021/05/26 03:38:51;;;;;;;21.75;7.72;;;;;;;;;;5093703;28;20056;-76
2021/05/26 03:41:17;;;;;;;23.73;7.25;;;;;;;;;;5086232;28;20046;-77
2021/05/26 03:43:43;;;;;;;19.10;7.05;;;;;;;;;;5057071;28;20063;-77
2021/05/26 03:46:09;;;;;;;21.73;7.88;;;;;;;;;;5082015;28;20089;-76
2021/05/26 03:48:35;;;;;;;18.95;5.97;;;;;;;;;;5068641;28;20025;-78
2021/05/26 03:51:01;;;;;;;26.15;7.20;;;;;;;;;;5084036;28;20016;-76
2021/05/26 03:53:27;;;;;;;18.40;7.28;;;;;;;;;;5088144;28;20035;-75
2021/05/26 03:55:53;;;;;;;18.08;7.18;;;;;;;;;;5066625;28;20567;-76
2021/05/26 03:58:19;;;;;;;24.20;7.80;;;;;;;;;;5083858;28;20052;-76
2021/05/26 04:00:45;;;;;;;18.98;7.40;;;;;;;;;;5085569;28;20031;-74
2021/05/26 04:03:12;;;;;;;22.13;7.85;;;;;;;;;;5088702;28;20036;-77
2021/05/26 04:05:38;;;;;;;18.50;7.10;;;;;;;;;;5080872;28;20031;-75
2021/05/26 04:08:04;;;;;;;17.77;7.40;;;;;;;;;;5074363;28;20121;-75
2021/05/26 04:10:30;;;;;;;15.40;7.03;;;;;;;;;;5080316;28;20480;-76
2021/05/26 04:12:56;;;;;;;18.08;6.25;;;;;;;;;;5091881;28;20115;-75
2021/05/26 04:15:25;;;;;;;28.77;7.47;;;;;;;;;;5076337;28;20071;-76
2021/05/26 04:17:51;;;;;;;22.80;6.30;;;;;;;;;;5060159;28;20050;-78
2021/05/26 04:20:17;;;;;;;17.95;7.25;;;;;;;;;;5077665;28;20074;-75
2021/05/26 04:22:43;;;;;;;18.75;6.65;;;;;;;;;;5081609;28;20019;-75
2021/05/26 04:25:09;;;;;;;16.55;5.97;;;;;;;;;;5089445;28;20665;-76
2021/05/26 04:27:35;;;;;;;15.45;6.32;;;;;;;;;;5076137;28;20043;-77
2021/05/26 04:30:01;;;;;;;18.10;6.90;;;;;;;;;;5072679;28;20021;-76
2021/05/26 04:32:28;;;;;;;19.60;6.72;;;;;;;;;;5089175;28;20084;-76
2021/05/26 04:34:54;;;;;;;16.80;7.82;;;;;;;;;;5071303;28;20031;-76
2021/05/26 04:37:20;;;;;;;26.27;6.38;;;;;;;;;;5066739;28;20419;-75
2021/05/26 04:39:46;;;;;;;19.15;6.93;;;;;;;;;;5091874;28;20036;-73
2021/05/26 04:42:12;;;;;;;28.15;7.22;;;;;;;;;;5089098;28;20028;-76
2021/05/26 04:44:38;;;;;;;20.17;7.20;;;;;;;;;;5088492;28;20040;-76
2021/05/26 04:47:04;;;;;;;20.30;7.57;;;;;;;;;;5091034;28;20100;-76
2021/05/26 04:49:30;;;;;;;14.23;6.07;;;;;;;;;;5091197;28;20031;-75
2021/05/26 04:51:57;;;;;;;19.08;7.35;;;;;;;;;;5088660;28;20436;-75
2021/05/26 04:54:23;;;;;;;23.17;6.72;;;;;;;;;;5087461;28;20116;-76
2021/05/26 04:56:49;;;;;;;18.33;6.40;;;;;;;;;;5091392;28;20039;-75
2021/05/26 04:59:15;;;;;;;19.33;7.95;;;;;;;;;;5074047;28;20096;-76
2021/05/26 05:01:41;;;;;;;19.15;7.20;;;;;;;;;;5090475;28;20035;-75
2021/05/26 05:04:07;;;;;;;18.10;6.72;;;;;;;;;;5088889;28;20039;-78
2021/05/26 05:06:33;;;;;;;19.58;6.72;;;;;;;;;;5073046;28;20032;-76
2021/05/26 05:08:59;;;;;;;17.20;7.15;;;;;;;;;;5091793;28;20043;-77
2021/05/26 05:11:25;;;;;;;18.25;7.50;;;;;;;;;;5087357;28;20120;-76
2021/05/26 05:13:51;;;;;;;19.15;6.97;;;;;;;;;;5087102;28;20032;-76
2021/05/26 05:16:18;;;;;;;17.75;7.25;;;;;;;;;;5090842;28;20024;-75
2021/05/26 05:18:44;;;;;;;22.08;7.10;;;;;;;;;;5084844;28;20048;-74
2021/05/26 05:21:10;;;;;;;15.48;6.80;;;;;;;;;;5069962;28;20454;-75
2021/05/26 05:23:36;;;;;;;19.92;6.38;;;;;;;;;;5080393;28;20115;-78
2021/05/26 05:26:02;;;;;;;17.33;7.40;;;;;;;;;;5086528;28;20048;-77
2021/05/26 05:28:28;;;;;;;20.38;7.10;;;;;;;;;;5091398;28;20020;-75
2021/05/26 05:30:54;;;;;;;16.98;6.43;;;;;;;;;;5090177;28;20028;-76
2021/05/26 05:33:20;;;;;;;16.17;7.78;;;;;;;;;;5084027;28;20031;-77
2021/05/26 05:35:46;;;;;;;16.27;6.60;;;;;;;;;;5076609;28;20031;-76
2021/05/26 05:38:12;;;;;;;15.68;7.50;;;;;;;;;;5089883;28;20020;-74
2021/05/26 05:40:38;;;;;;;23.48;7.65;;;;;;;;;;5086300;28;20020;-77
2021/05/26 05:43:05;;;;;;;22.33;8.07;;;;;;;;;;5083654;28;20489;-75
2021/05/26 05:45:30;;;;;;;17.40;8.02;;;;;;;;;;5058862;28;20067;-76
2021/05/26 05:47:57;;;;;;;22.20;8.15;;;;;;;;;;5090547;28;20028;-75
2021/05/26 05:50:23;;;;;;;21.65;8.65;;;;;;;;;;5064832;28;20032;-75
2021/05/26 05:52:49;;;;;;;17.42;8.52;;;;;;;;;;5075712;28;20479;-74
2021/05/26 05:55:16;;;;;;;24.00;8.90;;;;;;;;;;5085342;28;20035;-74
2021/05/26 05:57:42;;;;;;;22.02;8.02;;;;;;;;;;5089570;28;20032;-75
2021/05/26 06:00:09;;;;;;;21.33;8.82;;;;;;;;;;5074758;28;20035;-74
2021/05/26 06:02:35;;;;;;;20.35;8.63;;;;;;;;;;5080444;28;20093;-73
2021/05/26 06:05:01;;;;;;;20.77;9.50;;;;;;;;;;5084730;28;20051;-74
2021/05/26 06:07:27;;;;;;;20.08;8.98;;;;;;;;;;5086132;28;20036;-75
2021/05/26 06:09:53;;;;;;;23.70;8.95;;;;;;;;;;5088438;28;20590;-74
2021/05/26 06:12:20;;;;;;;19.13;9.50;;;;;;;;;;5085487;28;20102;-75
2021/05/26 06:14:46;;;;;;;26.70;10.30;;;;;;;;;;5086222;28;20032;-75
2021/05/26 06:17:15;;;;;;;21.27;8.80;;;;;;;;;;5087254;28;20107;-74
2021/05/26 06:19:41;;;;;;;25.65;10.73;;;;;;;;;;5077473;28;20039;-75
2021/05/26 06:22:08;;;;;;;21.65;8.85;;;;;;;;;;5085313;28;20039;-74
2021/05/26 06:24:34;;;;;;;15.43;7.97;;;;;;;;;;5088695;28;20050;-74
2021/05/26 06:27:00;;;;;;;19.48;9.15;;;;;;;;;;5089272;28;20016;-75
2021/05/26 06:29:26;;;;;;;20.55;9.10;;;;;;;;;;5081733;28;20044;-73
2021/05/26 06:31:52;;;;;;;19.80;7.93;;;;;;;;;;5085273;28;20048;-76
2021/05/26 06:34:19;;;;;;;16.60;7.57;;;;;;;;;;5087650;28;20106;-76
2021/05/26 06:36:45;;;;;;;18.50;6.32;;;;;;;;;;5066738;28;20024;-74
2021/05/26 06:39:11;;;;;;;20.23;7.05;;;;;;;;;;5089056;28;20105;-74
2021/05/26 06:41:37;;;;;;;15.43;5.60;;;;;;;;;;5085288;28;20028;-75
2021/05/26 06:44:03;;;;;;;14.13;5.05;;;;;;;;;;5070081;28;20024;-73
2021/05/26 06:46:29;;;;;;;15.38;4.53;;;;;;;;;;5091097;28;20028;-75
2021/05/26 06:48:55;;;;;;;13.30;3.60;;;;;;;;;;5074610;28;20032;-77
2021/05/26 06:51:21;;;;;;;15.20;5.47;;;;;;;;;;5094036;28;20028;-75
2021/05/26 06:53:47;;;;;;;8.90;3.78;;;;;;;;;;5092516;28;20031;-74
2021/05/26 06:56:13;;;;;;;15.90;4.65;;;;;;;;;;5093563;28;20089;-75
2021/05/26 06:58:39;;;;;;;14.40;4.28;;;;;;;;;;5093041;28;20032;-75
2021/05/26 07:01:06;;;;;;;15.93;3.92;;;;;;;;;;5075075;28;20039;-78
2021/05/26 07:03:32;;;;;;;13.23;3.92;;;;;;;;;;5083861;28;20063;-73
2021/05/26 07:05:58;;;;;;;10.82;3.50;;;;;;;;;;5085591;28;20040;-74
2021/05/26 07:08:24;;;;;;;10.23;3.78;;;;;;;;;;5075281;28;20040;-74
2021/05/26 07:10:51;;;;;;;9.70;3.72;;;;;;;;;;5092914;28;20103;-78
2021/05/26 07:13:17;;;;;;;16.27;3.88;;;;;;;;;;5091251;28;20346;-77
2021/05/26 07:15:43;;;;;;;11.90;3.50;;;;;;;;;;5074512;28;20020;-74
2021/05/26 07:18:09;;;;;;;17.38;4.63;;;;;;;;;;5081955;28;20060;-74
2021/05/26 07:20:36;;;;;;;12.93;3.67;;;;;;;;;;5087818;28;20042;-74
2021/05/26 07:23:02;;;;;;;19.70;5.10;;;;;;;;;;5074010;28;20024;-75
2021/05/26 07:25:28;;;;;;;16.25;4.93;;;;;;;;;;5089307;28;20024;-74
2021/05/26 07:27:54;;;;;;;14.25;4.38;;;;;;;;;;5080694;28;20025;-74
2021/05/26 07:30:21;;;;;;;10.95;4.93;;;;;;;;;;5082781;28;20032;-74
2021/05/26 07:32:50;;;;;;;14.63;3.95;;;;;;;;;;5084807;28;20024;-75
2021/05/26 07:35:17;;;;;;;11.38;4.97;;;;;;;;;;5065986;28;20486;-77
2021/05/26 07:37:43;;;;;;;12.93;4.35;;;;;;;;;;5079601;28;20016;-77
2021/05/26 07:40:10;;;;;;;13.60;4.63;;;;;;;;;;5080033;28;20552;-74
2021/05/26 07:42:36;;;;;;;12.32;3.85;;;;;;;;;;5085529;28;20035;-75
2021/05/26 07:45:02;;;;;;;11.38;4.35;;;;;;;;;;5077173;28;20036;-75
2021/05/26 07:47:28;;;;;;;9.77;3.65;;;;;;;;;;5085423;28;20145;-75
2021/05/26 07:49:54;;;;;;;10.52;4.10;;;;;;;;;;5084891;28;20024;-77
2021/05/26 07:52:21;;;;;;;11.13;4.57;;;;;;;;;;5068612;28;20013;-74
2021/05/26 07:54:50;;;;;;;12.93;3.35;;;;;;;;;;5068594;28;20563;-74
2021/05/26 07:57:17;;;;;;;16.25;3.90;;;;;;;;;;5087532;28;20020;-76
2021/05/26 07:59:44;;;;;;;15.35;3.97;;;;;;;;;;5083296;28;20093;-75
2021/05/26 08:02:12;;;;;;;14.50;3.78;;;;;;;;;;5064630;28;20116;-75
2021/05/26 08:04:38;;;;;;;12.48;4.43;;;;;;;;;;5065408;28;20103;-73
2021/05/26 08:07:04;;;;;;;12.02;3.75;;;;;;;;;;5081249;28;20024;-74
2021/05/26 08:09:30;;;;;;;8.88;2.95;;;;;;;;;;5061488;28;20077;-76
2021/05/26 08:11:56;;;;;;;14.20;3.42;;;;;;;;;;5084313;28;20024;-75
2021/05/26 08:14:23;;;;;;;15.43;3.78;;;;;;;;;;5082493;28;20074;-76
2021/05/26 08:16:50;;;;;;;8.65;3.22;;;;;;;;;;5083493;28;20028;-76
2021/05/26 08:19:16;;;;;;;13.68;4.45;;;;;;;;;;5068678;28;20046;-74
2021/05/26 08:21:42;;;;;;;10.75;3.47;;;;;;;;;;5062554;28;20111;-74
2021/05/26 08:24:08;;;;;;;14.05;3.78;;;;;;;;;;5076267;28;20496;-75
2021/05/26 08:26:35;;;;;;;15.45;4.03;;;;;;;;;;5082635;28;20028;-77
2021/05/26 08:29:03;;;;;;;14.60;3.95;;;;;;;;;;5085096;28;20017;-74
2021/05/26 08:31:30;;;;;;;11.55;4.65;;;;;;;;;;5084818;28;20126;-78
2021/05/26 08:33:56;;;;;;;17.20;3.55;;;;;;;;;;5063320;28;20051;-74
2021/05/26 08:36:22;;;;;;;14.88;3.70;;;;;;;;;;5084539;28;20101;-75
2021/05/26 08:38:48;;;;;;;10.05;3.63;;;;;;;;;;5087710;28;20035;-73
2021/05/26 08:41:19;;;;;;;12.23;3.95;;;;;;;;;;5089439;28;20032;-74
2021/05/26 08:43:45;;;;;;;12.73;3.75;;;;;;;;;;5082217;28;20032;-77
2021/05/26 08:46:11;;;;;;;17.25;3.60;;;;;;;;;;5060947;28;20041;-73
2021/05/26 08:48:37;;;;;;;12.80;3.10;;;;;;;;;;5088721;28;20016;-74
2021/05/26 08:51:06;;;;;;;14.20;2.78;;;;;;;;;;5084549;28;20116;-73
2021/05/26 08:53:33;;;;;;;11.75;2.83;;;;;;;;;;5083046;28;20710;-73
2021/05/26 08:55:59;;;;;;;14.65;3.45;;;;;;;;;;5066347;28;20484;-74
2021/05/26 08:58:26;;;;;;;12.73;3.53;;;;;;;;;;5084807;28;20081;-73
2021/05/26 09:00:52;;;;;;;14.50;4.35;;;;;;;;;;5084787;28;20617;-74
2021/05/26 09:03:18;;;;;;;15.27;4.20;;;;;;;;;;5084989;28;20311;-72
2021/05/26 09:05:51;;;;;;;13.88;3.90;;;;;;;;;;5078954;28;20116;-73
2021/05/26 09:08:18;;;;;;;10.85;3.55;;;;;;;;;;5080541;28;20097;-73
2021/05/26 09:10:48;;;;;;;15.93;4.78;;;;;;;;;;5084232;28;20020;-74
2021/05/26 09:13:27;;;;;;;15.73;5.00;;;;;;;;;;5080266;28;21242;-74
2021/05/26 09:15:54;;;;;;;16.40;4.82;;;;;;;;;;5084452;28;20039;-74
2021/05/26 09:18:20;;;;;;;16.38;3.90;;;;;;;;;;5072410;28;20030;-73
2021/05/26 09:20:46;;;;;;;16.88;4.80;;;;;;;;;;5082692;28;20035;-72
2021/05/26 09:23:16;;;;;;;14.38;4.38;;;;;;;;;;5084863;28;20020;-72
2021/05/26 09:25:46;;;;;;;16.95;4.63;;;;;;;;;;5088916;28;20034;-72
2021/05/26 09:28:23;;;;;;;13.65;4.18;;;;;;;;;;5088082;28;20397;-75
2021/05/26 09:30:52;;;;;;;13.63;4.30;;;;;;;;;;5085684;28;20024;-74
2021/05/26 09:33:30;;;;;;;11.60;3.95;;;;;;;;;;5063656;28;20319;-72
2021/05/26 09:36:17;;;;;;;10.70;3.03;;;;;;;;;;5085461;28;20114;-74
2021/05/26 09:38:45;;;;;;;9.60;4.07;;;;;;;;;;5088661;28;20050;-77
2021/05/26 09:41:23;;;;;;;17.55;4.22;;;;;;;;;;5067154;28;20513;-71
2021/05/26 09:43:56;;;;;;;11.75;3.70;;;;;;;;;;5085791;28;20016;-74
2021/05/26 09:46:23;;;;;;;7.22;3.67;;;;;;;;;;5077846;28;20093;-74
2021/05/26 09:48:59;;;;;;;9.65;3.63;;;;;;;;;;5088036;28;20473;-73
2021/05/26 09:51:27;;;;;;;12.70;4.15;;;;;;;;;;5080922;28;20024;-73
2021/05/26 09:54:13;;;;;;;17.58;4.57;;;;;;;;;;5078033;28;20523;-73
2021/05/26 09:56:39;;;;;;;10.50;4.13;;;;;;;;;;5084593;28;20035;-75
2021/05/26 09:59:06;;;;;;;13.23;4.18;;;;;;;;;;5077754;28;20028;-75
2021/05/26 10:01:32;;;;;;;9.27;5.00;;;;;;;;;;5084997;28;20051;-80
2021/05/26 10:03:59;;;;;;;13.43;4.03;;;;;;;;;;5080135;28;20027;-74
2021/05/26 10:06:28;;;;;;;14.20;4.30;;;;;;;;;;5067140;28;20032;-73
2021/05/26 10:08:55;;;;;;;14.02;3.88;;;;;;;;;;5086667;28;20059;-75
2021/05/26 10:11:22;;;;;;;12.25;3.90;;;;;;;;;;5084086;28;20021;-76
2021/05/26 10:13:50;;;;;;;10.27;4.32;;;;;;;;;;5082204;28;20499;-73
2021/05/26 10:16:17;;;;;;;11.43;3.95;;;;;;;;;;5081440;28;20032;-77
2021/05/26 10:18:43;;;;;;;8.88;3.50;;;;;;;;;;5066710;28;20028;-78
2021/05/26 10:21:09;;;;;;;9.93;3.55;;;;;;;;;;5083366;28;20056;-73
2021/05/26 10:23:35;;;;;;;11.73;3.53;;;;;;;;;;5077188;28;20247;-78
2021/05/26 10:26:01;;;;;;;8.73;3.25;;;;;;;;;;5061059;28;20032;-73
2021/05/26 10:28:32;;;;;;;7.18;3.47;;;;;;;;;;5064660;28;20020;-73
2021/05/26 10:30:58;;;;;;;10.82;4.10;;;;;;;;;;5083448;28;20013;-73
2021/05/26 10:33:40;;;;;;;5.57;2.88;;;;;;;;;;5074986;28;20181;-74
2021/05/26 10:36:08;;;;;;;7.07;3.63;;;;;;;;;;5082048;28;20027;-73
2021/05/26 10:38:53;;;;;;;7.70;3.80;;;;;;;;;;5083043;28;20027;-73
2021/05/26 10:41:19;;;;;;;10.13;3.25;;;;;;;;;;5080013;28;20028;-73
2021/05/26 10:43:52;;;;;;;9.88;3.83;;;;;;;;;;5079951;28;20028;-75
2021/05/26 10:46:35;;;;;;;9.98;3.72;;;;;;;;;;5082140;28;20105;-73
2021/05/26 10:49:02;;;;;;;7.85;2.45;;;;;;;;;;5084804;28;20425;-75
2021/05/26 10:51:47;;;;;;;8.27;2.67;;;;;;;;;;5085364;28;20414;-73
2021/05/26 10:54:33;;;;;;;6.63;2.20;;;;;;;;;;5079765;28;20139;-72
2021/05/26 10:56:59;;;;;;;4.65;1.73;;;;;;;;;;5080581;28;20522;-72
2021/05/26 10:59:25;;;;;;;7.60;2.08;;;;;;;;;;5063952;28;21388;-73
2021/05/26 11:02:07;;;;;;;4.15;1.75;;;;;;;;;;5062038;28;20055;-73
2021/05/26 11:04:34;;;;;;;10.02;2.00;;;;;;;;;;5077827;28;20589;-73
2021/05/26 11:07:16;;;;;;;4.68;1.63;;;;;;;;;;5082089;28;20027;-73
2021/05/26 11:09:56;;;;;;;6.78;2.30;;;;;;;;;;5085141;28;20059;-72
2021/05/26 11:12:22;;;;;;;5.53;1.92;;;;;;;;;;5081198;28;20020;-72
2021/05/26 11:14:53;;;;;;;7.57;2.15;;;;;;;;;;5061150;28;20028;-72
2021/05/26 11:17:21;;;;;;;5.97;1.42;;;;;;;;;;5082518;28;20031;-72
2021/05/26 11:19:48;;;;;;;7.75;1.92;;;;;;;;;;5076743;28;20063;-71
2021/05/26 11:22:15;;;;;;;8.30;1.95;;;;;;;;;;5074483;28;20037;-72
2021/05/26 11:24:45;;;;;;;8.00;1.70;;;;;;;;;;5080738;28;20507;-71
2021/05/26 11:27:18;;;;;;;9.23;2.03;;;;;;;;;;5083034;28;20023;-74
2021/05/26 11:29:44;;;;;;;4.95;1.77;;;;;;;;;;5080831;28;22592;-72
2021/05/26 11:32:10;;;;;;;7.85;2.13;;;;;;;;;;5088663;28;20028;-72
2021/05/26 11:34:36;;;;;;;5.65;1.90;;;;;;;;;;5082600;28;20059;-72
2021/05/26 11:37:03;;;;;;;5.10;1.25;;;;;;;;;;5087630;28;20698;-73
2021/05/26 11:39:32;;;;;;;6.25;1.95;;;;;;;;;;5084612;28;20165;-70
2021/05/26 11:42:07;;;;;;;5.90;1.55;;;;;;;;;;5082940;28;20055;-70
2021/05/26 11:44:35;;;;;;;3.58;1.27;;;;;;;;;;5064126;28;20417;-73
2021/05/26 11:47:01;;;;;;;7.82;1.42;;;;;;;;;;5083997;28;20024;-74
2021/05/26 11:49:28;;;;;;;3.78;1.13;;;;;;;;;;5085028;28;20484;-72
2021/05/26 11:52:01;;;;;;;6.95;1.20;;;;;;;;;;5084903;28;20100;-72
2021/05/26 11:54:27;;;;;;;5.53;1.02;;;;;;;;;;5084969;28;20407;-73
2021/05/26 11:57:00;;;;;;;4.78;1.25;;;;;;;;;;5085803;28;20028;-73
2021/05/26 11:59:27;;;;;;;5.30;1.08;;;;;;;;;;5086077;28;20035;-70
2021/05/26 12:01:53;;;;;;;4.43;1.48;;;;;;;;;;5088544;28;20024;-71
2021/05/26 12:04:20;;;;;;;4.75;1.27;;;;;;;;;;5083071;28;20032;-72
2021/05/26 12:06:47;;;;;;;3.00;1.25;;;;;;;;;;5087458;28;20031;-74
2021/05/26 12:09:29;;;;;;;2.95;1.00;;;;;;;;;;5086050;28;20090;-74
2021/05/26 12:11:55;;;;;;;4.32;1.10;;;;;;;;;;5087218;28;20480;-73
2021/05/26 12:14:32;;;;;;;5.25;1.70;;;;;;;;;;5082574;28;20024;-72
2021/05/26 12:17:00;;;;;;;4.88;1.67;;;;;;;;;;5069026;28;20120;-71
2021/05/26 12:19:30;;;;;;;4.78;1.63;;;;;;;;;;5084591;28;20491;-72
2021/05/26 12:22:19;;;;;;;8.98;2.17;;;;;;;;;;5082986;28;20032;-71
2021/05/26 12:24:54;;;;;;;10.80;2.67;;;;;;;;;;5050693;28;20047;-71
2021/05/26 12:27:43;;;;;;;8.10;2.15;;;;;;;;;;5087930;28;20048;-69
2021/05/26 12:30:24;;;;;;;7.95;2.28;;;;;;;;;;5061178;28;20028;-72
2021/05/26 12:32:53;;;;;;;5.78;2.05;;;;;;;;;;5088049;28;20130;-70
2021/05/26 12:35:21;;;;;;;8.40;2.20;;;;;;;;;;5081386;28;20036;-71
2021/05/26 12:37:51;;;;;;;9.65;2.72;;;;;;;;;;5082736;28;20052;-70
2021/05/26 12:40:23;;;;;;;6.40;2.75;;;;;;;;;;5082390;28;20406;-73
2021/05/26 12:42:49;;;;;;;6.05;3.25;;;;;;;;;;5064343;28;20028;-72
2021/05/26 12:45:17;;;;;;;10.98;3.67;;;;;;;;;;5083972;28;20032;-73
2021/05/26 12:47:43;;;;;;;8.48;3.78;;;;;;;;;;5085606;28;20026;-73
2021/05/26 12:50:13;;;;;;;10.05;3.35;;;;;;;;;;5067013;28;20028;-68
2021/05/26 12:52:39;;;;;;;13.13;4.60;;;;;;;;;;5086620;28;20130;-70
2021/05/26 12:55:06;;;;;;;10.00;3.97;;;;;;;;;;5077782;28;20081;-72
2021/05/26 12:57:32;;;;;;;10.75;3.55;;;;;;;;;;5078804;28;20120;-71
2021/05/26 13:00:03;;;;;;;9.02;3.28;;;;;;;;;;5080599;28;20063;-71
2021/05/26 13:02:34;;;;;;;7.40;2.53;;;;;;;;;;5063518;28;20037;-71
2021/05/26 13:05:01;;;;;;;8.52;3.13;;;;;;;;;;5078082;28;20106;-72
2021/05/26 13:07:30;;;;;;;10.57;3.13;;;;;;;;;;5077412;28;20291;-71
2021/05/26 13:09:56;;;;;;;7.55;3.08;;;;;;;;;;5077844;28;20391;-72
2021/05/26 13:12:27;;;;;;;6.75;2.40;;;;;;;;;;5077621;28;20016;-73
2021/05/26 13:14:53;;;;;;;8.65;3.05;;;;;;;;;;5077099;28;20029;-70
2021/05/26 13:17:27;;;;;;;10.75;2.85;;;;;;;;;;5064873;28;20478;-73
2021/05/26 13:19:53;;;;;;;8.55;2.95;;;;;;;;;;5077797;28;20565;-73
2021/05/26 13:22:19;;;;;;;6.60;2.55;;;;;;;;;;5077965;28;20028;-73
2021/05/26 13:24:45;;;;;;;7.75;3.28;;;;;;;;;;5075189;28;20384;-72
2021/05/26 13:27:11;;;;;;;10.25;3.45;;;;;;;;;;5059032;28;21171;-68
2021/05/26 13:29:37;;;;;;;8.52;3.10;;;;;;;;;;5081403;28;20054;-73
2021/05/26 13:32:04;;;;;;;13.80;3.70;;;;;;;;;;5061457;28;20058;-71
2021/05/26 13:34:30;;;;;;;5.95;2.72;;;;;;;;;;5080000;28;20063;-72
2021/05/26 13:36:56;;;;;;;6.15;2.83;;;;;;;;;;5077537;28;20063;-72
2021/05/26 13:39:22;;;;;;;8.45;2.90;;;;;;;;;;5082111;28;20024;-74
2021/05/26 13:41:48;;;;;;;5.55;2.90;;;;;;;;;;5082340;28;20036;-74
2021/05/26 13:44:14;;;;;;;9.32;3.28;;;;;;;;;;5060585;28;20027;-70
2021/05/26 13:46:40;;;;;;;11.68;3.42;;;;;;;;;;5080701;28;20024;-69
2021/05/26 13:49:06;;;;;;;8.73;2.95;;;;;;;;;;5077614;28;20028;-70
2021/05/26 13:51:32;;;;;;;9.85;3.65;;;;;;;;;;5074608;28;20099;-73
2021/05/26 13:53:58;;;;;;;10.45;3.60;;;;;;;;;;5074932;28;20028;-71
2021/05/26 13:56:24;;;;;;;8.60;3.70;;;;;;;;;;5081158;28;20056;-72
2021/05/26 13:58:50;;;;;;;12.70;4.38;;;;;;;;;;5078815;28;20058;-69
2021/05/26 14:01:16;;;;;;;10.57;4.30;;;;;;;;;;5076906;28;20031;-69
2021/05/26 14:03:42;;;;;;;9.07;4.82;;;;;;;;;;5077149;28;20040;-70
2021/05/26 14:06:09;;;;;;;12.93;4.57;;;;;;;;;;5081491;28;20426;-70
2021/05/26 14:08:35;;;;;;;10.40;4.20;;;;;;;;;;5062145;28;20040;-71
2021/05/26 14:11:01;;;;;;;10.88;4.20;;;;;;;;;;5077442;28;20031;-72
2021/05/26 14:13:27;;;;;;;10.07;4.43;;;;;;;;;;5076947;28;20904;-75
2021/05/26 14:15:53;;;;;;;15.63;5.40;;;;;;;;;;5079578;28;20039;-69
2021/05/26 14:18:19;;;;;;;15.45;5.50;;;;;;;;;;5081065;28;20035;-69
2021/05/26 14:20:45;;;;;;;15.77;5.72;;;;;;;;;;5082291;28;20031;-70
2021/05/26 14:23:13;;;;;;;10.18;5.22;;;;;;;;;;5080600;28;20548;-72
2021/05/26 14:25:39;;;;;;;13.32;4.90;;;;;;;;;;5083110;28;20032;-69
2021/05/26 14:28:05;;;;;;;11.98;4.38;;;;;;;;;;5079950;28;20016;-77
2021/05/26 14:30:31;;;;;;;13.10;3.67;;;;;;;;;;5080119;28;20039;-74
2021/05/26 14:32:57;;;;;;;10.65;4.82;;;;;;;;;;5079232;28;20036;-71
2021/05/26 14:35:26;;;;;;;7.97;3.83;;;;;;;;;;5078014;28;20043;-74
2021/05/26 14:38:04;;;;;;;11.93;5.28;;;;;;;;;;5079794;28;20044;-72